Time;durP1;ratioP1;P1;durP2;ratioP2;P2;SDS_P1;SDS_P2;PMS_P1;PMS_P2;Temp;Humidity;BMP_temperature;BMP_pressure;BME280_temperature;BME280_humidity;BME280_pressure;Samples;Min_cycle;Max_cycle;Signal;HPM_P1;HPM_P2
2022/03/25 00:00:12;;;;;;;20.90;11.07;;;;;;;4.02;49.33;101218.16;1404281;93;21498;-84
2022/03/25 00:02:40;;;;;;;17.17;8.20;;;;;;;3.96;49.01;101215.88;1396575;92;21355;-85
2022/03/25 00:05:08;;;;;;;19.97;9.17;;;;;;;3.89;50.75;101210.63;1377470;93;23230;-83
2022/03/25 00:07:34;;;;;;;17.80;8.70;;;;;;;3.81;50.75;101212.81;1386982;93;21651;-84
2022/03/25 00:10:01;;;;;;;18.47;9.90;;;;;;;3.75;50.53;101211.85;1406797;93;21530;-84
2022/03/25 00:12:27;;;;;;;17.13;10.13;;;;;;;3.70;51.04;101210.78;1393051;93;22509;-85
2022/03/25 00:14:54;;;;;;;20.27;9.43;;;;;;;3.66;50.63;101209.74;1383733;93;22205;-83
2022/03/25 00:17:20;;;;;;;19.03;9.40;;;;;;;3.63;50.22;101204.68;1396607;91;21707;-84
2022/03/25 00:19:46;;;;;;;18.03;9.73;;;;;;;3.61;51.15;101211.29;1431020;91;21742;-84
2022/03/25 00:22:12;;;;;;;15.27;8.93;;;;;;;3.56;50.37;101204.98;1403017;91;21811;-83
2022/03/25 00:24:38;;;;;;;17.23;9.67;;;;;;;3.52;51.11;101207.41;1394160;91;22910;-83
2022/03/25 00:27:04;;;;;;;22.17;9.83;;;;;;;3.51;50.64;101203.55;1407628;91;21558;-84
2022/03/25 00:29:30;;;;;;;18.83;9.93;;;;;;;3.49;50.21;101206.73;1425617;91;22306;-84
2022/03/25 00:31:56;;;;;;;20.62;10.70;;;;;;;3.43;51.07;101198.75;1411694;91;22959;-84
2022/03/25 00:34:22;;;;;;;22.93;10.40;;;;;;;3.38;51.93;101197.67;1400519;91;21444;-86
2022/03/25 00:36:48;;;;;;;19.43;10.03;;;;;;;3.32;50.96;101201.09;1395134;92;21428;-83
2022/03/25 00:39:14;;;;;;;22.57;10.30;;;;;;;3.28;51.50;101202.16;1416984;91;21366;-82
2022/03/25 00:41:41;;;;;;;20.12;10.10;;;;;;;3.24;50.79;101197.56;1425952;91;21571;-82
2022/03/25 00:44:07;;;;;;;19.23;9.88;;;;;;;3.22;50.62;101199.87;1426085;91;21388;-83
2022/03/25 00:46:34;;;;;;;22.60;10.95;;;;;;;3.18;50.85;101193.13;1429213;91;23380;-82
2022/03/25 00:49:00;;;;;;;21.40;9.98;;;;;;;3.15;50.76;101194.14;1414547;91;21405;-82
2022/03/25 00:51:27;;;;;;;20.88;10.68;;;;;;;3.10;50.83;101186.52;1421968;91;21447;-83
2022/03/25 00:53:53;;;;;;;22.00;11.25;;;;;;;3.09;50.86;101185.31;1423158;91;21411;-83
2022/03/25 00:56:19;;;;;;;19.40;10.20;;;;;;;3.06;51.16;101187.62;1425018;91;22537;-82
2022/03/25 00:58:45;;;;;;;33.05;10.50;;;;;;;3.03;51.42;101192.17;1411448;91;21368;-83
2022/03/25 01:01:11;;;;;;;21.73;10.73;;;;;;;2.99;52.18;101188.85;1389060;92;22399;-83
2022/03/25 01:03:37;;;;;;;22.13;11.15;;;;;;;2.96;51.87;101189.02;1420927;91;22289;-83
2022/03/25 01:06:03;;;;;;;21.77;11.80;;;;;;;2.93;51.83;101187.44;1416691;91;21447;-83
2022/03/25 01:08:29;;;;;;;24.07;11.63;;;;;;;2.91;53.23;101183.20;1430781;91;21395;-84
2022/03/25 01:10:55;;;;;;;24.27;11.70;;;;;;;2.90;52.86;101189.34;1423479;91;21404;-83
2022/03/25 01:13:22;;;;;;;20.37;11.90;;;;;;;2.88;52.69;101183.37;1430349;91;21507;-83
2022/03/25 01:15:48;;;;;;;26.35;12.07;;;;;;;2.87;53.23;101189.03;1393962;91;21391;-83
2022/03/25 01:18:15;;;;;;;26.68;12.15;;;;;;;2.87;54.36;101188.19;1391807;91;21509;-83
2022/03/25 01:20:42;;;;;;;24.47;12.05;;;;;;;2.84;53.91;101185.73;1391088;93;21861;-84
2022/03/25 01:23:09;;;;;;;31.15;12.47;;;;;;;2.81;53.02;101182.81;1386258;93;21384;-86
2022/03/25 01:25:36;;;;;;;33.23;13.15;;;;;;;2.80;53.35;101182.91;1391950;92;21408;-85
2022/03/25 01:28:02;;;;;;;19.87;11.40;;;;;;;2.79;52.79;101186.00;1394072;93;21435;-85
2022/03/25 01:30:28;;;;;;;25.45;12.07;;;;;;;2.77;52.61;101184.38;1398869;93;21497;-85
2022/03/25 01:32:54;;;;;;;25.77;13.57;;;;;;;2.75;52.55;101188.83;1394143;93;22429;-85
2022/03/25 01:35:24;;;;;;;25.95;12.73;;;;;;;2.75;52.75;101188.83;1394380;92;21446;-85
2022/03/25 01:37:49;;;;;;;24.45;12.50;;;;;;;2.75;52.94;101192.75;1371817;95;21487;-84
2022/03/25 01:40:15;;;;;;;28.57;12.90;;;;;;;2.77;53.09;101197.45;1402174;92;21419;-86
2022/03/25 01:42:41;;;;;;;25.10;12.05;;;;;;;2.78;53.21;101187.37;1397367;92;21475;-84
2022/03/25 01:45:11;;;;;;;23.52;12.53;;;;;;;2.80;52.95;101194.67;1393094;93;21334;-82
2022/03/25 01:47:39;;;;;;;25.90;12.95;;;;;;;2.82;53.32;101192.80;1391189;94;21420;-82
2022/03/25 01:50:14;;;;;;;25.17;12.28;;;;;;;2.83;53.18;101191.44;1401630;93;21549;-83
2022/03/25 01:52:40;;;;;;;23.75;10.82;;;;;;;2.86;53.27;101195.66;1386987;93;21549;-82
2022/03/25 01:55:21;;;;;;;25.67;12.00;;;;;;;2.88;53.25;101197.75;1394180;93;21593;-83
2022/03/25 01:57:49;;;;;;;26.02;14.10;;;;;;;2.89;53.41;101196.81;1390874;93;21391;-82
2022/03/25 02:00:17;;;;;;;25.43;12.80;;;;;;;2.89;53.29;101196.81;1377922;93;21420;-83
2022/03/25 02:02:44;;;;;;;23.18;12.85;;;;;;;2.89;54.09;101197.66;1409764;92;21435;-84
2022/03/25 02:05:10;;;;;;;24.52;12.68;;;;;;;2.88;53.77;101199.05;1390817;93;21939;-83
2022/03/25 02:07:37;;;;;;;19.45;11.43;;;;;;;2.89;54.01;101195.50;1384614;92;21458;-84
2022/03/25 02:10:05;;;;;;;25.02;11.93;;;;;;;2.89;54.41;101199.42;1408085;93;21340;-83
2022/03/25 02:12:35;;;;;;;26.82;12.25;;;;;;;2.87;55.17;101197.34;1405128;91;21368;-82
2022/03/25 02:15:01;;;;;;;24.72;12.45;;;;;;;2.87;55.01;101199.95;1400455;93;21414;-83
2022/03/25 02:17:27;;;;;;;21.57;11.95;;;;;;;2.85;55.38;101201.80;1387791;94;21327;-83
2022/03/25 02:19:53;;;;;;;33.28;13.22;;;;;;;2.81;55.46;101202.89;1402764;91;21476;-82
2022/03/25 02:22:20;;;;;;;25.02;12.93;;;;;;;2.79;55.49;101203.42;1395223;93;23543;-83
2022/03/25 02:24:47;;;;;;;37.98;12.58;;;;;;;2.77;55.45;101198.76;1400520;93;21379;-83
2022/03/25 02:27:13;;;;;;;84.92;13.60;;;;;;;2.73;56.07;101199.82;1391041;93;22349;-82
2022/03/25 02:29:39;;;;;;;125.18;18.73;;;;;;;2.72;56.15;101202.91;1396952;92;21478;-82
2022/03/25 02:32:06;;;;;;;134.15;16.65;;;;;;;2.67;56.43;101203.13;1388565;93;21395;-83
2022/03/25 02:34:32;;;;;;;44.95;13.55;;;;;;;2.65;56.44;101201.08;1356671;95;21318;-83
2022/03/25 02:37:00;;;;;;;52.45;14.18;;;;;;;2.63;56.72;101195.53;1365329;95;21399;-83
2022/03/25 02:39:28;;;;;;;30.95;12.88;;;;;;;2.63;56.72;101198.15;1369020;95;21451;-83
2022/03/25 02:41:54;;;;;;;35.78;13.15;;;;;;;2.64;56.73;101197.22;1368349;95;21772;-84
2022/03/25 02:44:20;;;;;;;28.60;12.70;;;;;;;2.65;56.43;101197.16;1344119;95;21424;-82
2022/03/25 02:46:45;;;;;;;26.25;12.05;;;;;;;2.63;56.48;101196.37;1342433;96;21514;-82
2022/03/25 02:49:11;;;;;;;43.33;13.37;;;;;;;2.65;56.38;101198.45;1339124;96;21419;-82
2022/03/25 02:51:37;;;;;;;22.00;12.60;;;;;;;2.65;56.21;101198.45;1336834;96;22482;-81
2022/03/25 02:54:03;;;;;;;26.65;13.60;;;;;;;2.67;55.82;101197.90;1347056;96;21418;-82
2022/03/25 02:56:29;;;;;;;22.43;12.73;;;;;;;2.68;56.08;101201.38;1344345;96;21425;-81
2022/03/25 02:58:56;;;;;;;22.05;12.85;;;;;;;2.68;55.87;101200.91;1384100;93;21493;-82
2022/03/25 03:01:22;;;;;;;28.20;13.03;;;;;;;2.67;56.05;101193.14;1399814;93;21343;-82
2022/03/25 03:03:48;;;;;;;23.83;12.63;;;;;;;2.69;55.73;101200.45;1402017;93;21365;-81
2022/03/25 03:06:14;;;;;;;24.52;12.82;;;;;;;2.66;55.88;101200.14;1384311;93;21542;-81
2022/03/25 03:08:41;;;;;;;24.27;12.75;;;;;;;2.67;55.71;101204.43;1385163;93;22237;-81
2022/03/25 03:11:08;;;;;;;36.60;14.03;;;;;;;2.66;55.57;101204.06;1385869;93;22341;-82
2022/03/25 03:13:34;;;;;;;21.65;13.38;;;;;;;2.66;55.75;101201.91;1392436;93;21798;-81
2022/03/25 03:16:01;;;;;;;22.58;13.80;;;;;;;2.65;55.96;101211.53;1385887;95;21506;-81
2022/03/25 03:18:27;;;;;;;23.42;12.85;;;;;;;2.64;55.93;101205.05;1400831;93;21357;-81
2022/03/25 03:20:53;;;;;;;26.00;13.50;;;;;;;2.63;56.18;101205.52;1407314;91;22439;-81
2022/03/25 03:23:20;;;;;;;22.80;13.90;;;;;;;2.61;56.30;101209.13;1382468;95;21383;-81
2022/03/25 03:25:46;;;;;;;22.37;11.63;;;;;;;2.59;56.10;101205.74;1367927;94;22311;-82
2022/03/25 03:28:13;;;;;;;25.02;13.68;;;;;;;2.60;56.15;101204.38;1380016;93;22366;-82
2022/03/25 03:30:39;;;;;;;23.05;12.53;;;;;;;2.62;55.98;101212.16;1392003;93;21488;-81
2022/03/25 03:33:05;;;;;;;25.62;14.53;;;;;;;2.61;56.15;101209.97;1383271;93;21409;-81
2022/03/25 03:35:34;;;;;;;25.82;14.58;;;;;;;2.62;55.98;101210.37;1398804;92;21255;-81
2022/03/25 03:38:01;;;;;;;28.45;12.95;;;;;;;2.63;55.90;101209.44;1398668;93;22237;-81
2022/03/25 03:40:27;;;;;;;33.70;15.23;;;;;;;2.63;55.96;101205.52;1393370;93;21441;-81
2022/03/25 03:42:54;;;;;;;32.85;13.85;;;;;;;2.62;56.33;101206.45;1390423;93;22254;-82
2022/03/25 03:45:20;;;;;;;24.65;12.95;;;;;;;2.59;58.49;101210.97;1379169;93;21421;-83
2022/03/25 03:47:47;;;;;;;21.75;13.13;;;;;;;2.49;59.21;101207.52;1387038;93;21333;-83
2022/03/25 03:50:16;;;;;;;22.30;12.23;;;;;;;2.39;58.49;101208.08;1382823;93;21503;-83
2022/03/25 03:52:43;;;;;;;27.02;13.38;;;;;;;2.31;59.15;101212.83;1378072;93;21362;-82
2022/03/25 03:55:10;;;;;;;25.65;12.50;;;;;;;2.29;57.89;101212.05;1383312;93;21459;-83
2022/03/25 03:57:38;;;;;;;27.62;13.70;;;;;;;2.26;58.99;101211.73;1380994;93;22486;-83
2022/03/25 04:00:10;;;;;;;25.37;14.75;;;;;;;2.29;58.10;101216.80;1387442;93;21436;-82
2022/03/25 04:02:36;;;;;;;22.30;13.15;;;;;;;2.28;57.90;101214.28;1393720;93;22703;-83
2022/03/25 04:05:04;;;;;;;22.82;12.37;;;;;;;2.27;58.39;101214.72;1395195;93;21445;-82
2022/03/25 04:07:30;;;;;;;23.32;13.32;;;;;;;2.25;57.92;101217.42;1399416;93;21403;-83
2022/03/25 04:09:58;;;;;;;24.15;12.55;;;;;;;2.22;58.51;101208.44;1407636;93;21358;-83
2022/03/25 04:12:24;;;;;;;35.38;15.40;;;;;;;2.23;57.63;101218.42;1395190;93;22200;-82
2022/03/25 04:14:50;;;;;;;32.58;15.55;;;;;;;2.20;57.68;101214.65;1396887;93;21409;-82
2022/03/25 04:17:19;;;;;;;25.90;13.43;;;;;;;2.18;58.10;101212.09;1382269;92;21857;-82
2022/03/25 04:19:44;;;;;;;21.48;13.65;;;;;;;2.17;58.01;101223.94;1391068;91;21475;-82
2022/03/25 04:22:10;;;;;;;19.90;12.20;;;;;;;2.13;58.90;101216.72;1376369;93;22515;-82
2022/03/25 04:24:35;;;;;;;22.50;13.07;;;;;;;2.10;59.00;101216.87;1381733;93;21568;-81
2022/03/25 04:27:01;;;;;;;27.97;15.27;;;;;;;2.07;59.31;101220.06;1402771;93;21366;-81
2022/03/25 04:29:27;;;;;;;22.67;12.87;;;;;;;2.07;59.16;101215.69;1387211;92;21466;-81
2022/03/25 04:31:53;;;;;;;25.10;13.50;;;;;;;2.06;59.36;101220.53;1396075;93;21593;-82
2022/03/25 04:34:19;;;;;;;26.93;14.27;;;;;;;2.02;60.25;101224.22;1396550;93;21416;-81
2022/03/25 04:36:45;;;;;;;22.47;12.50;;;;;;;2.00;59.85;101216.45;1398229;93;21373;-81
2022/03/25 04:39:11;;;;;;;26.52;13.62;;;;;;;1.99;60.30;101225.68;1397700;93;23493;-82
2022/03/25 04:41:37;;;;;;;25.67;13.00;;;;;;;1.97;59.47;101224.89;1397768;93;21342;-83
2022/03/25 04:44:03;;;;;;;34.03;14.58;;;;;;;1.99;59.51;101230.44;1389294;93;22445;-83
2022/03/25 04:46:29;;;;;;;67.95;30.08;;;;;;;2.01;59.11;101225.12;1389175;93;21364;-83
2022/03/25 04:48:55;;;;;;;27.20;14.60;;;;;;;2.03;59.43;101228.52;1388962;93;21454;-82
2022/03/25 04:51:21;;;;;;;24.73;14.03;;;;;;;2.05;58.76;101231.91;1397371;93;23396;-81
2022/03/25 04:53:48;;;;;;;24.63;14.03;;;;;;;2.06;58.62;101229.67;1394631;93;21453;-81
2022/03/25 04:56:14;;;;;;;21.10;12.25;;;;;;;2.08;58.40;101229.15;1402268;93;21476;-82
2022/03/25 04:58:40;;;;;;;29.32;13.53;;;;;;;2.09;58.23;101232.13;1386527;93;21483;-82
2022/03/25 05:01:05;;;;;;;29.50;12.50;;;;;;;2.12;58.24;101232.45;1406669;93;21336;-82
2022/03/25 05:03:31;;;;;;;26.48;12.82;;;;;;;2.14;58.58;101239.30;1382828;93;21318;-82
2022/03/25 05:05:57;;;;;;;25.90;13.10;;;;;;;2.19;59.05;101237.31;1402654;93;21454;-83
2022/03/25 05:08:23;;;;;;;51.53;17.17;;;;;;;2.27;59.22;101236.92;1384841;93;21410;-82
2022/03/25 05:10:49;;;;;;;36.30;13.75;;;;;;;2.36;60.98;101239.11;1409518;93;21617;-82
2022/03/25 05:13:15;;;;;;;21.67;12.37;;;;;;;2.48;60.30;101241.11;1400978;93;21395;-82
2022/03/25 05:15:41;;;;;;;25.02;13.25;;;;;;;2.63;60.38;101240.81;1395896;93;21364;-81
2022/03/25 05:18:07;;;;;;;24.87;14.53;;;;;;;2.79;59.31;101240.90;1389944;94;22361;-82
2022/03/25 05:20:33;;;;;;;115.00;51.65;;;;;;;2.92;59.21;101245.02;1384143;92;22485;-82
2022/03/25 05:22:59;;;;;;;46.73;23.80;;;;;;;3.04;58.99;101240.46;1415859;91;21319;-81
2022/03/25 05:25:25;;;;;;;58.83;28.45;;;;;;;3.16;58.85;101241.59;1408092;91;21600;-82
2022/03/25 05:28:00;;;;;;;50.55;25.97;;;;;;;3.31;58.50;101242.55;1420848;91;21486;-83
2022/03/25 05:30:31;;;;;;;56.83;27.63;;;;;;;3.43;58.08;101245.85;1418320;91;22342;-83
2022/03/25 05:32:59;;;;;;;52.95;27.98;;;;;;;3.56;58.37;101249.48;1411190;91;22080;-84
2022/03/25 05:35:28;;;;;;;43.80;24.30;;;;;;;3.68;57.71;101253.21;1406207;91;22228;-84
2022/03/25 05:37:54;;;;;;;39.63;22.17;;;;;;;3.85;57.39;101254.91;1412877;91;21621;-85
2022/03/25 05:40:23;;;;;;;47.67;29.40;;;;;;;3.98;57.42;101246.77;1420289;91;21717;-83
2022/03/25 05:42:50;;;;;;;46.37;27.13;;;;;;;4.14;57.07;101253.77;1426372;91;22885;-84
2022/03/25 05:45:19;;;;;;;51.90;27.13;;;;;;;4.29;56.59;101256.85;1420137;91;23590;-84
2022/03/25 05:47:45;;;;;;;47.60;21.83;;;;;;;4.45;56.47;101257.64;1401933;91;22413;-84
2022/03/25 05:50:12;;;;;;;31.43;16.03;;;;;;;4.60;56.13;101262.94;1408065;90;21466;-83
2022/03/25 05:52:56;;;;;;;28.27;13.07;;;;;;;4.73;55.61;101262.14;1416618;91;21933;-80
2022/03/25 05:55:22;;;;;;;34.87;11.73;;;;;;;4.90;55.35;101270.34;1404896;91;21659;-80
2022/03/25 05:57:49;;;;;;;29.17;11.87;;;;;;;5.08;55.18;101266.24;1402797;91;22096;-80
2022/03/25 06:00:32;;;;;;;21.50;11.70;;;;;;;5.23;54.84;101270.56;1418812;90;21649;-80
2022/03/25 06:02:58;;;;;;;25.60;12.83;;;;;;;5.37;54.71;101266.63;1397699;93;21589;-80
2022/03/25 06:05:24;;;;;;;25.33;11.27;;;;;;;5.55;54.26;101267.75;1402297;91;21518;-80
2022/03/25 06:07:50;;;;;;;25.70;13.20;;;;;;;5.70;54.07;101257.63;1408400;90;21432;-79
2022/03/25 06:10:16;;;;;;;15.60;9.90;;;;;;;5.87;53.76;101262.67;1404770;91;22350;-79
2022/03/25 06:12:42;;;;;;;21.27;10.53;;;;;;;6.05;52.70;101266.41;1413122;91;22298;-80
2022/03/25 06:15:09;;;;;;;25.03;10.97;;;;;;;6.28;52.07;101265.77;1423028;91;21411;-79
2022/03/25 06:17:47;;;;;;;21.57;11.40;;;;;;;6.50;51.80;101269.61;1425329;90;22439;-79
2022/03/25 06:20:20;;;;;;;19.50;11.27;;;;;;;6.67;51.81;101265.88;1407117;93;21650;-80
2022/03/25 06:22:49;;;;;;;20.53;11.77;;;;;;;6.85;49.58;101269.93;1406565;93;21748;-80
2022/03/25 06:25:17;;;;;;;27.17;12.93;;;;;;;7.04;48.70;101273.94;1403946;93;22904;-81
2022/03/25 06:27:51;;;;;;;28.30;14.03;;;;;;;7.20;48.89;101275.42;1403602;93;21921;-82
2022/03/25 06:30:18;;;;;;;20.20;10.33;;;;;;;7.37;49.16;101269.00;1406356;93;23073;-82
2022/03/25 06:32:45;;;;;;;23.10;9.93;;;;;;;7.50;48.58;101261.55;1403321;92;22187;-80
2022/03/25 06:35:11;;;;;;;22.27;12.50;;;;;;;7.63;46.89;101276.40;1401169;93;23081;-81
2022/03/25 06:37:37;;;;;;;19.03;11.33;;;;;;;7.78;47.64;101273.63;1402602;93;24091;-83
2022/03/25 06:40:07;;;;;;;21.20;12.17;;;;;;;7.90;47.56;101277.54;1402575;93;23171;-81
2022/03/25 06:42:42;;;;;;;20.47;11.67;;;;;;;8.04;46.85;101273.09;1404046;93;22209;-82
2022/03/25 06:45:12;;;;;;;25.23;13.70;;;;;;;8.27;46.53;101274.05;1406100;93;21700;-82
2022/03/25 06:47:38;;;;;;;19.77;11.63;;;;;;;8.27;46.53;101274.05;1401923;93;21397;-82
2022/03/25 06:50:07;;;;;;;22.57;12.63;;;;;;;8.42;45.94;101278.23;1403289;93;22461;-83
2022/03/25 06:52:36;;;;;;;17.43;10.93;;;;;;;8.55;45.96;101280.34;1400545;93;22284;-82
2022/03/25 06:55:03;;;;;;;22.40;12.10;;;;;;;8.57;45.06;101262.60;1405663;93;21330;-82
2022/03/25 06:57:30;;;;;;;22.27;12.10;;;;;;;8.77;44.88;101281.36;1403620;92;21877;-81
2022/03/25 06:59:56;;;;;;;28.93;12.53;;;;;;;8.89;45.08;101283.09;1405309;93;21493;-80
2022/03/25 07:02:23;;;;;;;19.00;11.73;;;;;;;8.97;44.39;101279.38;1403765;93;21555;-81
2022/03/25 07:04:50;;;;;;;22.77;10.77;;;;;;;9.12;44.24;101286.63;1399802;93;22532;-81
2022/03/25 07:07:26;;;;;;;18.50;11.87;;;;;;;9.25;43.89;101286.04;1405941;93;21331;-81
2022/03/25 07:09:51;;;;;;;21.13;12.80;;;;;;;9.33;43.66;101283.30;1401223;93;21449;-81
2022/03/25 07:12:18;;;;;;;27.43;12.80;;;;;;;9.53;43.49;101286.55;1403349;92;21472;-80
2022/03/25 07:14:44;;;;;;;29.67;13.47;;;;;;;9.67;43.68;101288.95;1405828;93;21481;-81
2022/03/25 07:17:11;;;;;;;21.07;11.30;;;;;;;9.84;43.44;101284.98;1397544;93;21940;-85
2022/03/25 07:19:37;;;;;;;20.10;10.77;;;;;;;9.90;42.46;101284.48;1393747;93;21390;-85
2022/03/25 07:22:03;;;;;;;27.00;13.90;;;;;;;9.96;42.08;101281.00;1408441;92;21515;-85
2022/03/25 07:24:29;;;;;;;23.80;10.97;;;;;;;10.04;42.29;101285.17;1409808;92;21536;-86
2022/03/25 07:26:56;;;;;;;15.50;9.80;;;;;;;10.17;42.09;101286.71;1416400;92;21493;-85
2022/03/25 07:29:22;;;;;;;14.50;9.30;;;;;;;10.34;40.90;101289.83;1403849;92;22261;-84
2022/03/25 07:31:48;;;;;;;17.07;8.97;;;;;;;10.50;41.33;101292.91;1413063;92;21418;-86
2022/03/25 07:34:14;;;;;;;13.33;7.97;;;;;;;10.66;40.91;101288.50;1417301;92;21404;-83
2022/03/25 07:36:40;;;;;;;18.40;9.47;;;;;;;10.79;39.88;101285.20;1415994;92;21488;-83
2022/03/25 07:39:06;;;;;;;23.43;10.83;;;;;;;10.75;39.85;101289.06;1413593;92;22393;-83
2022/03/25 07:41:32;;;;;;;17.00;10.30;;;;;;;10.91;40.14;101293.09;1425770;90;21338;-83
2022/03/25 07:43:58;;;;;;;16.43;9.73;;;;;;;11.05;39.66;101294.10;1448930;90;21413;-83
2022/03/25 07:46:24;;;;;;;23.23;11.47;;;;;;;11.12;39.32;101291.27;1443173;90;21353;-83
2022/03/25 07:48:51;;;;;;;20.23;10.07;;;;;;;11.15;39.46;101291.01;1449134;89;21390;-82
2022/03/25 07:51:17;;;;;;;15.83;9.30;;;;;;;11.16;39.71;101293.17;1437985;90;21398;-83
2022/03/25 07:53:43;;;;;;;19.57;10.00;;;;;;;11.17;39.58;101297.52;1458978;90;21344;-82
2022/03/25 07:56:11;;;;;;;13.03;8.20;;;;;;;11.30;39.62;101292.34;1475701;91;21300;-83
2022/03/25 07:58:43;;;;;;;16.50;8.43;;;;;;;11.37;39.13;101291.84;1481864;91;21389;-82
2022/03/25 08:01:09;;;;;;;17.10;10.50;;;;;;;11.48;39.15;101294.41;1403567;91;23450;-82
2022/03/25 08:03:35;;;;;;;14.77;9.93;;;;;;;11.40;39.03;101291.09;1436737;90;21501;-83
2022/03/25 08:06:03;;;;;;;14.33;9.50;;;;;;;11.63;39.22;101287.77;1432665;91;21389;-84
2022/03/25 08:08:29;;;;;;;20.67;10.10;;;;;;;11.72;38.63;101285.64;1422846;91;21598;-82
2022/03/25 08:10:56;;;;;;;14.57;9.50;;;;;;;11.93;38.74;101288.73;1426422;91;21522;-82
2022/03/25 08:13:23;;;;;;;17.57;10.40;;;;;;;12.19;38.88;101283.77;1431402;91;21403;-83
2022/03/25 08:15:49;;;;;;;20.53;8.70;;;;;;;12.32;38.63;101284.35;1434837;91;21411;-83
2022/03/25 08:18:20;;;;;;;15.80;9.47;;;;;;;12.43;37.93;101283.39;1431737;91;21396;-83
2022/03/25 08:20:48;;;;;;;15.97;8.60;;;;;;;12.52;37.85;101283.88;1427190;91;21624;-82
2022/03/25 08:28:53;;;;;;;13.73;7.93;;;;;;;12.82;37.77;101278.06;1513083;91;21278;-83
2022/03/25 08:31:19;;;;;;;14.37;7.20;;;;;;;12.95;37.37;101275.95;1376185;91;22474;-83
2022/03/25 08:33:46;;;;;;;14.17;7.47;;;;;;;13.00;37.16;101279.50;1432751;91;22488;-83
2022/03/25 08:36:12;;;;;;;17.20;7.73;;;;;;;13.06;37.35;101282.91;1427700;91;21448;-83
2022/03/25 08:38:38;;;;;;;14.47;7.70;;;;;;;13.07;36.65;101280.13;1411004;91;21536;-83
2022/03/25 08:41:04;;;;;;;16.17;7.93;;;;;;;13.23;36.94;101275.52;1433557;91;21381;-83
2022/03/25 08:43:31;;;;;;;14.63;8.13;;;;;;;13.49;37.16;101278.91;1423131;91;21507;-83
2022/03/25 08:45:57;;;;;;;17.47;8.20;;;;;;;13.57;36.37;101271.03;1435880;91;22495;-86
2022/03/25 08:48:23;;;;;;;24.57;8.70;;;;;;;13.56;36.49;101271.20;1431091;91;21447;-88
2022/03/25 08:50:50;;;;;;;14.37;8.07;;;;;;;13.73;37.57;101275.73;1433227;91;21814;-85
2022/03/25 08:53:17;;;;;;;23.63;10.00;;;;;;;13.77;36.40;101266.47;1389263;91;21381;-83
2022/03/25 08:55:43;;;;;;;14.33;8.20;;;;;;;13.96;38.29;101278.84;1327204;94;21330;-86
2022/03/25 08:58:09;;;;;;;13.27;8.93;;;;;;;14.04;37.48;101271.42;1434391;91;21308;-84
2022/03/25 09:00:42;;;;;;;19.37;9.33;;;;;;;14.13;37.20;101273.20;1391118;91;21418;-84
2022/03/25 09:03:09;;;;;;;19.00;8.70;;;;;;;14.01;37.87;101264.56;1427459;91;21417;-88
2022/03/25 09:05:35;;;;;;;16.87;9.57;;;;;;;14.34;36.54;101267.09;1440841;91;21381;-86
2022/03/25 09:08:05;;;;;;;18.40;8.40;;;;;;;14.28;36.13;101264.20;1429840;91;21441;-84
2022/03/25 09:10:31;;;;;;;11.93;6.47;;;;;;;14.16;36.34;101266.25;1431586;91;22335;-88
2022/03/25 09:12:57;;;;;;;21.07;9.23;;;;;;;14.43;35.25;101264.84;1426686;91;21838;-88
2022/03/25 09:15:23;;;;;;;16.27;7.60;;;;;;;14.53;35.29;101275.94;1425320;91;21359;-89
2022/03/25 09:17:49;;;;;;;11.97;6.63;;;;;;;14.47;35.97;101259.20;1431852;91;21373;-85
2022/03/25 09:20:16;;;;;;;13.70;7.63;;;;;;;14.30;34.46;101267.06;1423531;91;21514;-83
2022/03/25 09:22:43;;;;;;;19.63;8.03;;;;;;;13.89;35.19;101266.60;1433436;91;21565;-84
2022/03/25 09:25:11;;;;;;;12.57;7.20;;;;;;;13.95;35.18;101254.05;1431838;91;21329;-84
2022/03/25 09:27:39;;;;;;;13.17;5.13;;;;;;;14.11;34.94;101261.86;1426167;91;21418;-83
2022/03/25 09:30:08;;;;;;;11.43;6.43;;;;;;;14.22;34.72;101253.16;1430430;91;21419;-84
2022/03/25 09:32:34;;;;;;;37.03;8.03;;;;;;;14.35;34.27;101251.44;1426408;91;21403;-88
2022/03/25 09:35:09;;;;;;;17.13;6.37;;;;;;;14.54;34.20;101256.32;1429495;91;21366;-89
2022/03/25 09:37:43;;;;;;;32.40;8.10;;;;;;;14.58;34.17;101249.19;1411633;91;21381;-89
2022/03/25 09:40:14;;;;;;;14.17;6.73;;;;;;;14.47;34.36;101240.56;1433005;91;21448;-87
2022/03/25 09:42:41;;;;;;;15.57;5.10;;;;;;;14.65;34.87;101252.09;1424581;91;21367;-86
2022/03/25 09:45:10;;;;;;;10.53;6.40;;;;;;;14.71;33.71;101250.64;1425324;91;22362;-86
2022/03/25 09:47:36;;;;;;;17.27;7.03;;;;;;;14.81;33.94;101252.19;1430651;91;22276;-86
2022/03/25 09:50:08;;;;;;;10.80;5.90;;;;;;;14.86;33.94;101249.91;1424388;91;22386;-81
2022/03/25 09:52:36;;;;;;;18.20;5.53;;;;;;;14.83;34.13;101246.22;1414598;91;21322;-82
2022/03/25 09:55:03;;;;;;;11.10;4.23;;;;;;;15.09;34.13;101246.73;1406766;91;21396;-82
2022/03/25 09:57:30;;;;;;;12.40;5.40;;;;;;;15.22;33.65;101251.63;1434031;91;21911;-81
2022/03/25 09:59:58;;;;;;;9.17;4.90;;;;;;;14.88;33.73;101247.94;1432145;91;21431;-81
2022/03/25 10:02:27;;;;;;;8.00;4.70;;;;;;;15.07;33.77;101250.05;1427983;91;21454;-80
2022/03/25 10:04:55;;;;;;;12.37;4.72;;;;;;;14.99;33.67;101240.19;1427778;91;21447;-82
2022/03/25 10:07:30;;;;;;;9.57;5.10;;;;;;;15.12;33.96;101244.58;1412655;91;21396;-82
2022/03/25 10:10:13;;;;;;;12.80;6.40;;;;;;;15.46;33.70;101243.77;1432240;91;21300;-85
2022/03/25 10:12:42;;;;;;;23.33;6.83;;;;;;;15.66;33.38;101250.20;1423395;91;22269;-82
2022/03/25 10:15:18;;;;;;;16.03;6.77;;;;;;;15.73;32.96;101244.06;1417475;91;22446;-82
2022/03/25 10:18:03;;;;;;;19.47;6.50;;;;;;;15.65;33.10;101241.36;1433185;91;22165;-81
2022/03/25 10:20:34;;;;;;;14.03;7.40;;;;;;;15.74;33.29;101245.76;1428958;91;21403;-80
2022/03/25 10:23:19;;;;;;;10.32;5.78;;;;;;;15.68;32.70;101246.41;1427789;91;21426;-82
2022/03/25 10:25:56;;;;;;;15.63;9.00;;;;;;;15.63;32.89;101240.68;1425066;91;21395;-82
2022/03/25 10:28:43;;;;;;;16.03;6.87;;;;;;;15.97;33.50;101233.16;1431555;91;21425;-83
2022/03/25 10:31:14;;;;;;;19.27;7.37;;;;;;;16.09;33.02;101243.02;1422295;91;21522;-83
2022/03/25 10:33:52;;;;;;;8.83;6.28;;;;;;;16.10;32.64;101242.84;1427115;91;21410;-82
2022/03/25 10:36:21;;;;;;;22.03;8.97;;;;;;;16.28;32.08;101236.02;1433687;91;21351;-83
2022/03/25 10:38:54;;;;;;;10.13;6.57;;;;;;;16.44;32.57;101231.20;1424868;91;21448;-82
2022/03/25 10:41:23;;;;;;;12.90;6.90;;;;;;;16.65;32.07;101234.20;1425724;91;21358;-81
2022/03/25 10:44:05;;;;;;;14.27;6.87;;;;;;;15.92;32.02;101248.31;1432075;91;21307;-82
2022/03/25 10:46:42;;;;;;;13.13;5.30;;;;;;;15.90;32.54;101233.45;1423660;91;21389;-83
2022/03/25 10:49:12;;;;;;;38.17;8.00;;;;;;;16.15;32.62;101236.52;1429950;91;21418;-82
2022/03/25 10:51:41;;;;;;;12.03;6.30;;;;;;;16.45;32.39;101244.89;1429600;91;21447;-83
2022/03/25 10:54:14;;;;;;;18.23;6.73;;;;;;;16.48;31.79;101237.88;1434068;91;21514;-82
2022/03/25 10:56:51;;;;;;;24.97;8.83;;;;;;;16.72;31.31;101230.37;1434130;91;21373;-82
2022/03/25 10:59:33;;;;;;;39.43;19.87;;;;;;;16.66;31.77;101227.88;1423706;91;21330;-83
2022/03/25 11:02:06;;;;;;;17.53;7.90;;;;;;;17.04;32.37;101230.03;1411062;91;21519;-82
2022/03/25 11:04:34;;;;;;;21.23;9.57;;;;;;;16.67;30.82;101224.69;1430205;91;21366;-82
2022/03/25 11:07:01;;;;;;;14.43;7.43;;;;;;;16.81;31.54;101221.88;1426288;91;21432;-82
2022/03/25 11:09:28;;;;;;;19.33;9.30;;;;;;;16.29;31.67;101231.03;1423184;91;21448;-82
2022/03/25 11:11:56;;;;;;;13.23;6.23;;;;;;;16.50;31.71;101225.20;1427858;91;21373;-82
2022/03/25 11:14:22;;;;;;;21.53;7.50;;;;;;;16.28;31.40;101225.84;1431007;91;21448;-82
2022/03/25 11:16:55;;;;;;;20.37;11.73;;;;;;;16.51;31.43;101223.35;1430132;91;22296;-83
2022/03/25 11:19:23;;;;;;;17.37;10.37;;;;;;;16.81;32.02;101214.69;1429084;91;23319;-82
2022/03/25 11:21:51;;;;;;;15.03;6.93;;;;;;;17.12;32.06;101221.99;1426557;91;21388;-82
2022/03/25 11:24:41;;;;;;;13.03;6.63;;;;;;;16.98;30.96;101214.16;1410484;91;22110;-82